Time;durP1;ratioP1;P1;durP2;ratioP2;P2;SDS_P1;SDS_P2;PMS_P1;PMS_P2;Temp;Humidity;BMP_temperature;BMP_pressure;BME280_temperature;BME280_humidity;BME280_pressure;Samples;Min_cycle;Max_cycle;Signal;HPM_P1;HPM_P2
2023/02/07 00:01:57;;;;;;;24.08;15.73;;;;;;;;;;10029309;28;20445;-62
2023/02/07 00:06:51;;;;;;;20.38;15.27;;;;;;;;;;10029993;28;20049;-62
2023/02/07 00:11:45;;;;;;;14.77;12.68;;;;;;;;;;10029792;28;20046;-63
2023/02/07 00:16:39;;;;;;;15.60;12.63;;;;;;;;;;10029757;28;20064;-62
2023/02/07 00:21:33;;;;;;;18.10;12.77;;;;;;;;;;10030064;28;20053;-62
2023/02/07 00:26:27;;;;;;;20.15;13.38;;;;;;;;;;10026339;28;20069;-63
2023/02/07 00:31:29;;;;;;;19.00;13.10;;;;;;;;;;10028438;28;20046;-62
2023/02/07 00:36:23;;;;;;;17.10;12.85;;;;;;;;;;10027545;28;20046;-62
2023/02/07 00:41:17;;;;;;;17.23;13.55;;;;;;;;;;10028532;28;20046;-62
2023/02/07 00:46:10;;;;;;;17.00;14.45;;;;;;;;;;10028413;28;20057;-62
2023/02/07 00:51:04;;;;;;;17.88;14.40;;;;;;;;;;10026220;28;20057;-63
2023/02/07 00:55:58;;;;;;;15.70;12.80;;;;;;;;;;10022480;28;20046;-63
2023/02/07 01:00:51;;;;;;;16.98;12.63;;;;;;;;;;10018336;28;20450;-63
2023/02/07 01:05:45;;;;;;;15.60;12.48;;;;;;;;;;10018133;28;20042;-62
2023/02/07 01:10:40;;;;;;;17.65;12.68;;;;;;;;;;10026144;28;20049;-63
2023/02/07 01:15:38;;;;;;;19.13;14.65;;;;;;;;;;10027081;28;20100;-63
2023/02/07 01:20:31;;;;;;;14.63;12.50;;;;;;;;;;10026369;28;20129;-62
2023/02/07 01:25:24;;;;;;;16.65;12.75;;;;;;;;;;10019002;28;20108;-63
2023/02/07 01:30:17;;;;;;;15.80;12.70;;;;;;;;;;10026867;28;20049;-62
2023/02/07 01:35:10;;;;;;;16.45;13.80;;;;;;;;;;10026797;28;20395;-63
2023/02/07 01:40:04;;;;;;;18.02;14.73;;;;;;;;;;10026328;28;20458;-63
2023/02/07 01:45:01;;;;;;;15.98;13.43;;;;;;;;;;10026104;28;20050;-63
2023/02/07 01:49:55;;;;;;;18.80;15.05;;;;;;;;;;10025632;28;20096;-63
2023/02/07 01:54:51;;;;;;;19.38;14.85;;;;;;;;;;10026304;28;20510;-63
2023/02/07 01:59:45;;;;;;;23.52;15.77;;;;;;;;;;10024925;28;20090;-63
2023/02/07 02:04:39;;;;;;;16.95;11.95;;;;;;;;;;10005909;28;20048;-63
2023/02/07 02:09:33;;;;;;;14.40;9.77;;;;;;;;;;10019173;28;20073;-62
2023/02/07 02:14:47;;;;;;;12.40;9.43;;;;;;;;;;10024664;28;20050;-62
2023/02/07 02:20:01;;;;;;;11.13;9.65;;;;;;;;;;10022382;28;20049;-63
2023/02/07 02:25:26;;;;;;;20.02;12.18;;;;;;;;;;10024819;28;20050;-63
2023/02/07 02:31:04;;;;;;;11.18;9.68;;;;;;;;;;9999059;28;20513;-62
2023/02/07 02:36:26;;;;;;;16.02;11.05;;;;;;;;;;10023791;28;20046;-61
2023/02/07 02:41:23;;;;;;;17.23;11.65;;;;;;;;;;10013086;28;20054;-62
2023/02/07 02:46:35;;;;;;;14.18;11.50;;;;;;;;;;10023809;28;20062;-63
2023/02/07 02:51:29;;;;;;;14.95;11.63;;;;;;;;;;10018637;28;20046;-63
2023/02/07 02:56:51;;;;;;;15.00;11.52;;;;;;;;;;10013830;28;20181;-62
2023/02/07 03:01:45;;;;;;;15.00;12.52;;;;;;;;;;10024333;28;20084;-64
2023/02/07 03:06:49;;;;;;;13.90;10.82;;;;;;;;;;10029738;28;20430;-63
2023/02/07 03:11:53;;;;;;;17.73;12.63;;;;;;;;;;10011320;28;20081;-63
2023/02/07 03:17:01;;;;;;;12.43;10.85;;;;;;;;;;10025564;28;20062;-63
2023/02/07 03:21:59;;;;;;;15.52;11.52;;;;;;;;;;10026294;28;20057;-63
2023/02/07 03:26:55;;;;;;;13.10;10.75;;;;;;;;;;10024290;28;20494;-63
2023/02/07 03:31:50;;;;;;;15.50;13.15;;;;;;;;;;10014043;28;20576;-63
2023/02/07 03:37:11;;;;;;;15.77;11.98;;;;;;;;;;10025363;28;20052;-63
2023/02/07 03:42:07;;;;;;;16.92;14.98;;;;;;;;;;10022423;28;20380;-63
2023/02/07 03:47:00;;;;;;;17.60;12.75;;;;;;;;;;10030150;28;20140;-62
2023/02/07 03:51:54;;;;;;;15.95;13.25;;;;;;;;;;10030297;28;20145;-63
2023/02/07 03:56:48;;;;;;;15.43;12.00;;;;;;;;;;10030593;28;20080;-63
2023/02/07 04:01:42;;;;;;;13.55;11.65;;;;;;;;;;10022000;28;20141;-63
2023/02/07 04:06:36;;;;;;;21.63;16.25;;;;;;;;;;10030034;28;20080;-63
2023/02/07 04:11:29;;;;;;;28.08;17.92;;;;;;;;;;10029614;28;20505;-63
2023/02/07 04:16:22;;;;;;;20.50;14.60;;;;;;;;;;10027594;28;20058;-63
2023/02/07 04:21:15;;;;;;;25.70;18.45;;;;;;;;;;10029829;28;20054;-63
2023/02/07 04:26:09;;;;;;;27.67;17.83;;;;;;;;;;10028406;28;20058;-62
2023/02/07 04:31:03;;;;;;;20.75;17.30;;;;;;;;;;10029619;28;20056;-63
2023/02/07 04:35:58;;;;;;;20.00;15.13;;;;;;;;;;10026695;28;20103;-62
2023/02/07 04:40:51;;;;;;;22.15;15.55;;;;;;;;;;10009093;28;20072;-62
2023/02/07 04:45:46;;;;;;;18.63;16.30;;;;;;;;;;10024549;28;20124;-62
2023/02/07 04:50:40;;;;;;;17.00;14.55;;;;;;;;;;10022053;28;20092;-62
2023/02/07 04:55:36;;;;;;;20.40;14.07;;;;;;;;;;10028442;28;20056;-64
2023/02/07 05:00:30;;;;;;;23.25;16.02;;;;;;;;;;10028904;28;20464;-63
2023/02/07 05:05:22;;;;;;;18.83;13.93;;;;;;;;;;10024483;28;20144;-64
2023/02/07 05:10:16;;;;;;;20.48;15.10;;;;;;;;;;10027001;28;20057;-63
2023/02/07 05:15:10;;;;;;;22.10;15.75;;;;;;;;;;10023606;28;20081;-63
2023/02/07 05:20:06;;;;;;;25.38;16.02;;;;;;;;;;10027041;28;20490;-63
2023/02/07 05:25:00;;;;;;;20.00;14.85;;;;;;;;;;10019000;28;20058;-63
2023/02/07 05:29:54;;;;;;;18.92;15.27;;;;;;;;;;10027215;28;20085;-63
2023/02/07 05:34:47;;;;;;;19.10;15.15;;;;;;;;;;10020801;28;20467;-62
2023/02/07 05:39:40;;;;;;;21.65;15.68;;;;;;;;;;10026798;28;20045;-64
2023/02/07 05:44:33;;;;;;;18.63;13.80;;;;;;;;;;10025355;28;20052;-64
2023/02/07 05:49:27;;;;;;;18.60;16.17;;;;;;;;;;10019118;28;20081;-63
2023/02/07 05:54:21;;;;;;;18.17;14.43;;;;;;;;;;10001982;28;20062;-63
2023/02/07 05:59:15;;;;;;;21.38;17.55;;;;;;;;;;10007403;28;20046;-63
2023/02/07 06:04:08;;;;;;;19.90;15.13;;;;;;;;;;10011960;28;20447;-63
2023/02/07 06:09:02;;;;;;;20.20;15.45;;;;;;;;;;10007542;28;20053;-63
2023/02/07 06:13:55;;;;;;;19.25;15.95;;;;;;;;;;10013701;28;20062;-61
2023/02/07 06:18:49;;;;;;;17.45;14.32;;;;;;;;;;10001818;28;20075;-63
2023/02/07 06:23:41;;;;;;;16.75;13.43;;;;;;;;;;10013053;28;20057;-63
2023/02/07 06:28:34;;;;;;;19.73;15.23;;;;;;;;;;10029857;28;20054;-63
2023/02/07 06:33:28;;;;;;;21.60;16.05;;;;;;;;;;10023719;28;20088;-64
2023/02/07 06:38:22;;;;;;;17.10;15.20;;;;;;;;;;10025813;28;20096;-62
2023/02/07 06:43:15;;;;;;;17.73;14.52;;;;;;;;;;10004945;28;20046;-63
2023/02/07 06:48:08;;;;;;;17.17;14.18;;;;;;;;;;10023140;28;20068;-62
2023/02/07 06:53:02;;;;;;;17.08;14.30;;;;;;;;;;10026574;28;20046;-62
2023/02/07 06:57:56;;;;;;;16.98;13.98;;;;;;;;;;10033003;28;20057;-62
2023/02/07 07:02:49;;;;;;;18.65;13.38;;;;;;;;;;10031992;28;20057;-62
2023/02/07 07:07:43;;;;;;;20.85;14.07;;;;;;;;;;10029945;28;20046;-61
2023/02/07 07:12:36;;;;;;;23.45;15.40;;;;;;;;;;10018880;28;20518;-62
2023/02/07 07:17:30;;;;;;;36.08;26.42;;;;;;;;;;10030920;28;20042;-63
2023/02/07 07:22:24;;;;;;;27.23;20.35;;;;;;;;;;10031297;28;20046;-63
2023/02/07 07:27:18;;;;;;;24.30;16.55;;;;;;;;;;10030309;28;20507;-63
2023/02/07 07:32:10;;;;;;;22.10;16.65;;;;;;;;;;10028336;28;20124;-63
2023/02/07 07:37:20;;;;;;;21.90;17.40;;;;;;;;;;10027097;28;20053;-63
2023/02/07 07:42:13;;;;;;;28.50;18.92;;;;;;;;;;10030271;28;20046;-63
2023/02/07 07:47:26;;;;;;;19.38;14.63;;;;;;;;;;10029037;28;20081;-63
2023/02/07 07:52:20;;;;;;;21.92;15.52;;;;;;;;;;10029225;28;20062;-63
2023/02/07 07:57:13;;;;;;;23.67;15.73;;;;;;;;;;10029520;28;20050;-63
2023/02/07 08:02:14;;;;;;;21.73;16.23;;;;;;;;;;10026040;28;20058;-63
2023/02/07 08:07:07;;;;;;;33.17;17.10;;;;;;;;;;10024584;28;20423;-63
2023/02/07 08:12:00;;;;;;;19.88;14.27;;;;;;;;;;10025191;28;20058;-64
2023/02/07 08:16:54;;;;;;;22.92;12.80;;;;;;;;;;10029427;28;20050;-63
2023/02/07 08:21:47;;;;;;;17.27;12.95;;;;;;;;;;10030626;28;20502;-63
2023/02/07 08:26:39;;;;;;;14.57;10.93;;;;;;;;;;10027746;28;20469;-63
2023/02/07 08:31:33;;;;;;;15.85;11.65;;;;;;;;;;10028916;28;20042;-63
2023/02/07 08:36:26;;;;;;;17.25;13.70;;;;;;;;;;10028832;28;20507;-63
2023/02/07 08:41:19;;;;;;;19.95;12.65;;;;;;;;;;10028315;28;20564;-65
2023/02/07 08:46:12;;;;;;;16.55;12.73;;;;;;;;;;10028592;28;20509;-63
2023/02/07 08:51:08;;;;;;;15.18;12.23;;;;;;;;;;10027027;28;20498;-64
2023/02/07 08:56:02;;;;;;;15.23;11.70;;;;;;;;;;10028166;28;20392;-63
2023/02/07 09:00:55;;;;;;;14.30;10.07;;;;;;;;;;10027522;28;20057;-64
2023/02/07 09:05:48;;;;;;;15.43;9.90;;;;;;;;;;10028087;28;20042;-64
2023/02/07 09:10:42;;;;;;;15.95;10.18;;;;;;;;;;10027657;28;20046;-64
2023/02/07 09:15:38;;;;;;;16.15;10.82;;;;;;;;;;10028197;28;20045;-64
2023/02/07 09:20:31;;;;;;;14.10;10.25;;;;;;;;;;10027342;28;20057;-64
2023/02/07 09:25:25;;;;;;;13.02;8.77;;;;;;;;;;10026815;28;20114;-64
2023/02/07 09:30:18;;;;;;;19.13;9.60;;;;;;;;;;10026721;28;20384;-64
2023/02/07 09:35:12;;;;;;;17.38;10.50;;;;;;;;;;10027244;28;20100;-64
2023/02/07 09:40:06;;;;;;;12.57;9.05;;;;;;;;;;10026550;28;20042;-64
2023/02/07 09:44:59;;;;;;;12.93;8.82;;;;;;;;;;10026940;28;20487;-63
2023/02/07 09:50:02;;;;;;;11.60;8.82;;;;;;;;;;10023759;28;20542;-63
2023/02/07 09:54:55;;;;;;;16.00;9.80;;;;;;;;;;10023018;28;20060;-64
2023/02/07 10:00:06;;;;;;;18.33;10.27;;;;;;;;;;10022050;28;20061;-64
2023/02/07 10:05:04;;;;;;;13.45;9.90;;;;;;;;;;10023636;28;20104;-64
2023/02/07 10:09:57;;;;;;;12.18;9.32;;;;;;;;;;10026163;28;20054;-65
2023/02/07 10:15:12;;;;;;;10.02;8.75;;;;;;;;;;10013344;28;20046;-64
2023/02/07 10:20:25;;;;;;;14.90;8.90;;;;;;;;;;10011097;28;20073;-64
2023/02/07 10:25:23;;;;;;;13.38;8.85;;;;;;;;;;10024023;28;20525;-63
2023/02/07 10:30:22;;;;;;;13.53;8.90;;;;;;;;;;10024091;28;20082;-63
2023/02/07 10:35:19;;;;;;;13.55;8.45;;;;;;;;;;10021557;28;20053;-62
2023/02/07 10:40:15;;;;;;;14.05;7.80;;;;;;;;;;10016415;28;20124;-62
2023/02/07 10:45:12;;;;;;;12.10;8.25;;;;;;;;;;10023064;28;20062;-62
2023/02/07 10:50:17;;;;;;;8.32;6.75;;;;;;;;;;10021705;28;20133;-62
2023/02/07 10:55:57;;;;;;;7.78;6.75;;;;;;;;;;10022490;28;20557;-62
2023/02/07 11:00:52;;;;;;;12.77;8.32;;;;;;;;;;9993971;28;20511;-62
2023/02/07 11:05:54;;;;;;;11.95;7.72;;;;;;;;;;10019232;28;20049;-62
2023/02/07 11:10:47;;;;;;;10.85;8.40;;;;;;;;;;10020860;28;20040;-62
2023/02/07 11:16:06;;;;;;;10.32;8.88;;;;;;;;;;10018359;28;20053;-62
2023/02/07 11:20:58;;;;;;;14.07;7.53;;;;;;;;;;10013357;28;20494;-62
2023/02/07 11:25:56;;;;;;;14.07;8.60;;;;;;;;;;10022105;28;20551;-62
2023/02/07 11:31:04;;;;;;;9.48;6.45;;;;;;;;;;10028625;28;20502;-62
2023/02/07 11:36:11;;;;;;;11.33;7.20;;;;;;;;;;10026688;28;20065;-62
2023/02/07 11:41:07;;;;;;;11.60;6.80;;;;;;;;;;10030456;28;20726;-62
2023/02/07 11:46:17;;;;;;;8.65;7.40;;;;;;;;;;10025065;28;20470;-61
2023/02/07 11:51:14;;;;;;;12.73;7.22;;;;;;;;;;10030638;28;20080;-62
2023/02/07 11:56:22;;;;;;;10.65;8.35;;;;;;;;;;10030350;28;20434;-62
2023/02/07 12:01:18;;;;;;;9.52;7.13;;;;;;;;;;10025190;28;20046;-62
2023/02/07 12:06:14;;;;;;;9.40;6.57;;;;;;;;;;10026364;28;20491;-61
2023/02/07 12:11:14;;;;;;;9.07;7.20;;;;;;;;;;10021281;28;20058;-61
2023/02/07 12:16:09;;;;;;;9.60;7.18;;;;;;;;;;10023991;28;20121;-62
2023/02/07 12:21:24;;;;;;;5.20;4.65;;;;;;;;;;10028008;28;20068;-62
2023/02/07 12:26:29;;;;;;;9.95;6.88;;;;;;;;;;10029543;28;20053;-62
2023/02/07 12:31:28;;;;;;;10.18;6.20;;;;;;;;;;10028887;28;20080;-62
2023/02/07 12:36:38;;;;;;;8.52;5.35;;;;;;;;;;10027297;28;20132;-62
2023/02/07 12:41:46;;;;;;;8.80;4.97;;;;;;;;;;10019912;28;20520;-61
2023/02/07 12:47:05;;;;;;;4.88;3.92;;;;;;;;;;10016457;28;20064;-61
2023/02/07 12:52:11;;;;;;;9.82;5.72;;;;;;;;;;9995235;28;20077;-62
2023/02/07 12:57:09;;;;;;;7.18;5.45;;;;;;;;;;9996950;28;20057;-62
2023/02/07 13:02:11;;;;;;;7.00;5.90;;;;;;;;;;10016118;28;20506;-63
2023/02/07 13:07:07;;;;;;;8.15;6.22;;;;;;;;;;10022777;28;20534;-62
2023/02/07 13:12:23;;;;;;;8.32;6.38;;;;;;;;;;10001079;28;20434;-61
2023/02/07 13:17:57;;;;;;;10.40;8.10;;;;;;;;;;9987007;28;20054;-61
2023/02/07 13:22:56;;;;;;;10.25;8.57;;;;;;;;;;10005846;28;20491;-62
2023/02/07 13:27:51;;;;;;;8.93;7.23;;;;;;;;;;10018491;28;20487;-62
2023/02/07 13:32:46;;;;;;;7.82;6.50;;;;;;;;;;10019923;28;20309;-62
2023/02/07 13:38:00;;;;;;;9.30;7.63;;;;;;;;;;9999427;28;20104;-62
2023/02/07 13:43:08;;;;;;;7.43;6.63;;;;;;;;;;9991555;28;20061;-61
2023/02/07 13:48:27;;;;;;;9.40;7.28;;;;;;;;;;9984327;28;20066;-61
2023/02/07 13:53:32;;;;;;;10.20;7.22;;;;;;;;;;9986171;28;20073;-62
2023/02/07 14:04:21;;;;;;;12.65;7.40;;;;;;;;;;9986597;28;20054;-60
2023/02/07 14:09:13;;;;;;;9.30;7.27;;;;;;;;;;9986323;28;20479;-61
2023/02/07 14:14:23;;;;;;;8.25;6.18;;;;;;;;;;9991002;28;20054;-61
2023/02/07 14:19:38;;;;;;;10.75;7.18;;;;;;;;;;9993476;28;20061;-62
2023/02/07 14:24:58;;;;;;;14.15;8.55;;;;;;;;;;9995342;28;20096;-61
2023/02/07 14:29:54;;;;;;;9.80;7.55;;;;;;;;;;9995784;28;20418;-62
2023/02/07 14:35:16;;;;;;;10.40;8.15;;;;;;;;;;9994731;28;20043;-61
2023/02/07 14:40:30;;;;;;;9.68;7.30;;;;;;;;;;9995397;28;20121;-62
2023/02/07 14:45:23;;;;;;;10.13;7.55;;;;;;;;;;9991061;28;20054;-61
2023/02/07 14:50:29;;;;;;;11.38;9.10;;;;;;;;;;9993188;28;20077;-61
2023/02/07 14:55:41;;;;;;;10.10;8.15;;;;;;;;;;9995635;28;20129;-62
2023/02/07 15:00:45;;;;;;;16.45;9.77;;;;;;;;;;9995581;28;20455;-61
2023/02/07 15:05:46;;;;;;;17.85;10.35;;;;;;;;;;9998075;28;20061;-60
2023/02/07 15:10:45;;;;;;;14.00;10.15;;;;;;;;;;10008520;28;20042;-60
2023/02/07 15:15:51;;;;;;;10.13;8.17;;;;;;;;;;10014412;28;20049;-60
2023/02/07 15:20:50;;;;;;;18.35;10.18;;;;;;;;;;10016569;28;20472;-60
2023/02/07 15:25:43;;;;;;;12.20;9.88;;;;;;;;;;10011381;28;20414;-60
2023/02/07 15:30:56;;;;;;;13.95;9.32;;;;;;;;;;10014352;28;20116;-60
2023/02/07 15:35:51;;;;;;;11.32;9.57;;;;;;;;;;10026053;28;20077;-61
2023/02/07 15:40:43;;;;;;;13.60;9.07;;;;;;;;;;10017062;28;20049;-61
2023/02/07 15:45:38;;;;;;;9.52;8.18;;;;;;;;;;10019589;28;20060;-60
2023/02/07 15:50:31;;;;;;;11.80;9.45;;;;;;;;;;10008469;28;20042;-60
2023/02/07 15:55:26;;;;;;;13.48;10.25;;;;;;;;;;10001400;28;20050;-60
2023/02/07 16:00:27;;;;;;;14.05;10.50;;;;;;;;;;10014102;28;20074;-61
2023/02/07 16:05:32;;;;;;;14.02;9.80;;;;;;;;;;10012078;28;20483;-60
2023/02/07 16:10:28;;;;;;;16.23;9.80;;;;;;;;;;10005284;28;20050;-61
2023/02/07 16:15:33;;;;;;;12.07;9.50;;;;;;;;;;10012726;28;20454;-61
2023/02/07 16:20:27;;;;;;;13.07;9.63;;;;;;;;;;10024856;28;20049;-60
2023/02/07 16:25:25;;;;;;;13.43;10.35;;;;;;;;;;10027932;28;20064;-60
2023/02/07 16:30:22;;;;;;;12.35;10.10;;;;;;;;;;10029211;28;20498;-59
2023/02/07 16:35:20;;;;;;;13.75;11.63;;;;;;;;;;10028902;28;20434;-61
2023/02/07 16:40:13;;;;;;;21.50;16.58;;;;;;;;;;10023204;28;20046;-72
2023/02/07 16:45:20;;;;;;;30.08;17.05;;;;;;;;;;10027807;28;20457;-62
2023/02/07 16:50:47;;;;;;;19.50;14.30;;;;;;;;;;10015266;28;20225;-61
2023/02/07 16:55:40;;;;;;;17.50;12.00;;;;;;;;;;10027356;28;20145;-61
2023/02/07 17:00:34;;;;;;;14.30;10.63;;;;;;;;;;10025198;28;20057;-61
2023/02/07 17:05:26;;;;;;;21.33;11.98;;;;;;;;;;10020145;28;20426;-62
2023/02/07 17:10:22;;;;;;;19.65;13.85;;;;;;;;;;10011155;28;20057;-62
2023/02/07 17:15:16;;;;;;;17.90;12.52;;;;;;;;;;10005748;28;20050;-61
2023/02/07 17:20:39;;;;;;;19.63;15.45;;;;;;;;;;10009257;28;20060;-63
2023/02/07 17:25:34;;;;;;;18.55;14.15;;;;;;;;;;10012186;28;20053;-62
2023/02/07 17:30:29;;;;;;;17.02;13.85;;;;;;;;;;10007618;28;20638;-62
2023/02/07 17:35:23;;;;;;;24.80;18.38;;;;;;;;;;10014000;28;20046;-61
2023/02/07 17:40:48;;;;;;;15.75;14.05;;;;;;;;;;10010637;28;20475;-62
2023/02/07 17:45:41;;;;;;;31.42;14.95;;;;;;;;;;10011562;28;20049;-61
2023/02/07 17:50:39;;;;;;;20.02;15.88;;;;;;;;;;10015744;28;20055;-61
2023/02/07 17:55:33;;;;;;;25.23;17.77;;;;;;;;;;10011193;28;20041;-60
2023/02/07 18:00:31;;;;;;;26.73;18.67;;;;;;;;;;10006632;28;20054;-61
2023/02/07 18:05:25;;;;;;;27.77;18.00;;;;;;;;;;10003872;28;20060;-62
2023/02/07 18:10:43;;;;;;;23.00;18.33;;;;;;;;;;10013728;28;20056;-61
2023/02/07 18:15:37;;;;;;;33.58;23.90;;;;;;;;;;10010523;28;20557;-61
2023/02/07 18:20:32;;;;;;;46.53;29.90;;;;;;;;;;10008480;28;20069;-61
2023/02/07 18:25:28;;;;;;;41.47;32.58;;;;;;;;;;10010043;28;20558;-60
2023/02/07 18:30:23;;;;;;;39.30;27.48;;;;;;;;;;10013962;28;20129;-61
2023/02/07 18:35:16;;;;;;;38.08;25.38;;;;;;;;;;10027950;28;20506;-60
2023/02/07 18:40:14;;;;;;;42.53;32.65;;;;;;;;;;10005053;28;20042;-61
2023/02/07 18:45:09;;;;;;;40.37;26.37;;;;;;;;;;10025089;28;20061;-60
2023/02/07 18:50:10;;;;;;;33.03;23.77;;;;;;;;;;10032042;28;20332;-61
2023/02/07 18:55:05;;;;;;;45.15;31.38;;;;;;;;;;10032803;28;20054;-61
2023/02/07 18:59:59;;;;;;;50.13;38.30;;;;;;;;;;10032328;28;20054;-61
2023/02/07 19:04:52;;;;;;;40.83;27.25;;;;;;;;;;10029272;28;20475;-61
2023/02/07 19:09:45;;;;;;;31.88;23.25;;;;;;;;;;10013131;28;20069;-61
2023/02/07 19:14:38;;;;;;;36.25;23.88;;;;;;;;;;10016696;28;20042;-60
2023/02/07 19:19:32;;;;;;;35.08;23.27;;;;;;;;;;10007075;28;20053;-60
2023/02/07 19:24:26;;;;;;;47.17;25.48;;;;;;;;;;10007858;28;20057;-60
2023/02/07 19:29:26;;;;;;;35.30;22.60;;;;;;;;;;10005561;28;20046;-60
2023/02/07 19:34:20;;;;;;;30.90;21.63;;;;;;;;;;10018247;28;20400;-61
2023/02/07 19:39:13;;;;;;;43.90;29.70;;;;;;;;;;10022567;28;20414;-60
2023/02/07 19:44:06;;;;;;;51.97;34.75;;;;;;;;;;10016818;28;20060;-60
2023/02/07 19:48:59;;;;;;;54.03;36.40;;;;;;;;;;10020054;28;20221;-60
2023/02/07 19:53:54;;;;;;;44.45;34.40;;;;;;;;;;10017377;28;20053;-60
2023/02/07 19:58:49;;;;;;;46.28;34.20;;;;;;;;;;10018719;28;20043;-61
2023/02/07 20:03:43;;;;;;;42.63;32.55;;;;;;;;;;10006930;28;20048;-61
2023/02/07 20:08:38;;;;;;;43.22;31.45;;;;;;;;;;10022423;28;20085;-60
2023/02/07 20:13:34;;;;;;;48.67;32.10;;;;;;;;;;10015196;28;20058;-67
2023/02/07 20:18:27;;;;;;;41.55;29.10;;;;;;;;;;10012114;28;20042;-60
2023/02/07 20:23:20;;;;;;;38.90;27.40;;;;;;;;;;10020106;28;20485;-61
2023/02/07 20:28:13;;;;;;;34.03;25.85;;;;;;;;;;10014040;28;20050;-61
2023/02/07 20:33:07;;;;;;;38.25;24.60;;;;;;;;;;10015557;28;20050;-60
2023/02/07 20:38:01;;;;;;;32.72;21.80;;;;;;;;;;10012530;28;20064;-60
2023/02/07 20:42:54;;;;;;;28.65;21.98;;;;;;;;;;10007157;28;20419;-62
2023/02/07 20:47:48;;;;;;;26.45;20.98;;;;;;;;;;10008515;28;20479;-60
2023/02/07 20:52:41;;;;;;;32.88;21.08;;;;;;;;;;10004504;28;20143;-61
2023/02/07 20:57:34;;;;;;;32.42;21.00;;;;;;;;;;10005595;28;20480;-61
2023/02/07 21:02:28;;;;;;;33.35;25.35;;;;;;;;;;10010805;28;20061;-62
2023/02/07 21:07:23;;;;;;;26.70;22.30;;;;;;;;;;10020534;28;20053;-61
2023/02/07 21:12:18;;;;;;;29.65;19.90;;;;;;;;;;10014592;28;20048;-62
2023/02/07 21:17:14;;;;;;;27.05;19.63;;;;;;;;;;10016014;28;20107;-64
2023/02/07 21:22:07;;;;;;;27.20;20.30;;;;;;;;;;10009014;28;20668;-62
2023/02/07 21:27:02;;;;;;;26.67;17.17;;;;;;;;;;10007766;28;20054;-61
2023/02/07 21:31:56;;;;;;;24.27;19.08;;;;;;;;;;10017143;28;20054;-62
2023/02/07 21:36:52;;;;;;;23.35;18.45;;;;;;;;;;10017868;28;20151;-62
2023/02/07 21:41:46;;;;;;;25.48;16.95;;;;;;;;;;10014753;28;20070;-60
2023/02/07 21:46:40;;;;;;;23.83;17.20;;;;;;;;;;10012776;28;20395;-61
2023/02/07 21:51:35;;;;;;;25.25;19.02;;;;;;;;;;10013492;28;20120;-62
2023/02/07 21:56:31;;;;;;;30.95;19.65;;;;;;;;;;10003956;28;20085;-62
2023/02/07 22:01:25;;;;;;;24.77;18.80;;;;;;;;;;10012631;28;20408;-61
2023/02/07 22:06:19;;;;;;;24.48;20.02;;;;;;;;;;10005989;28;20042;-62
2023/02/07 22:11:16;;;;;;;39.53;18.77;;;;;;;;;;9998092;28;20169;-62
2023/02/07 22:16:09;;;;;;;26.85;20.73;;;;;;;;;;10013023;28;20426;-61
2023/02/07 22:21:05;;;;;;;24.42;17.65;;;;;;;;;;10018344;28;20122;-61
2023/02/07 22:25:58;;;;;;;29.42;18.30;;;;;;;;;;10018132;28;20542;-62
2023/02/07 22:30:51;;;;;;;27.23;18.95;;;;;;;;;;10011167;28;20522;-61
2023/02/07 22:35:45;;;;;;;27.92;18.95;;;;;;;;;;10012391;28;20054;-61
2023/02/07 22:40:40;;;;;;;26.08;18.63;;;;;;;;;;10005423;28;20046;-62
2023/02/07 22:45:37;;;;;;;23.25;19.33;;;;;;;;;;10011648;28;20422;-62
2023/02/07 22:50:30;;;;;;;20.70;18.42;;;;;;;;;;10011755;28;20065;-62
2023/02/07 22:55:23;;;;;;;26.23;17.15;;;;;;;;;;10003600;28;20054;-61
2023/02/07 23:00:19;;;;;;;22.98;17.25;;;;;;;;;;10009299;28;20054;-61
2023/02/07 23:05:13;;;;;;;18.80;14.00;;;;;;;;;;10006464;28;20433;-61
2023/02/07 23:10:07;;;;;;;23.00;15.38;;;;;;;;;;10013003;28;20138;-61
2023/02/07 23:15:02;;;;;;;20.80;15.55;;;;;;;;;;10004845;28;20499;-62
2023/02/07 23:19:54;;;;;;;19.80;16.30;;;;;;;;;;10010025;28;20062;-61
2023/02/07 23:24:49;;;;;;;25.70;15.07;;;;;;;;;;10012424;28;20053;-62
2023/02/07 23:29:42;;;;;;;23.88;15.23;;;;;;;;;;10013657;28;20061;-61
2023/02/07 23:34:35;;;;;;;21.15;16.77;;;;;;;;;;10016841;28;20089;-62
2023/02/07 23:39:29;;;;;;;21.17;18.17;;;;;;;;;;10015368;28;20494;-61
2023/02/07 23:44:24;;;;;;;23.88;18.02;;;;;;;;;;10013021;28;20058;-61
2023/02/07 23:49:17;;;;;;;26.20;18.67;;;;;;;;;;10009843;28;20060;-62
2023/02/07 23:54:11;;;;;;;27.98;21.92;;;;;;;;;;10009279;28;20050;-62
2023/02/07 23:59:05;;;;;;;25.33;17.02;;;;;;;;;;10021899;28;20056;-61
